sensor_id;sensor_type;location;lat;lon;timestamp;pressure;altitude;pressure_sealevel;temperature;humidity
35758;BME280;21879;50.110;18.900;2023-08-30T00:02:52;97592.69;;;18.07;78.20
35758;BME280;21879;50.110;18.900;2023-08-30T00:13:19;97583.08;;;17.81;77.47
35758;BME280;21879;50.110;18.900;2023-08-30T00:23:47;97561.87;;;17.64;77.38
35758;BME280;21879;50.110;18.900;2023-08-30T00:34:15;97553.77;;;17.57;77.46
35758;BME280;21879;50.110;18.900;2023-08-30T00:44:42;97551.53;;;17.57;77.33
35758;BME280;21879;50.110;18.900;2023-08-30T00:55:10;97564.53;;;17.60;77.43
35758;BME280;21879;50.110;18.900;2023-08-30T01:05:38;97573.36;;;17.75;77.74
35758;BME280;21879;50.110;18.900;2023-08-30T01:16:06;97563.80;;;17.80;77.40
35758;BME280;21879;50.110;18.900;2023-08-30T01:26:41;97552.71;;;17.67;77.44
35758;BME280;21879;50.110;18.900;2023-08-30T01:37:10;97550.50;;;17.56;77.47
35758;BME280;21879;50.110;18.900;2023-08-30T01:47:41;97553.23;;;17.49;77.49
35758;BME280;21879;50.110;18.900;2023-08-30T01:58:10;97554.48;;;17.51;77.70
35758;BME280;21879;50.110;18.900;2023-08-30T02:08:40;97558.34;;;17.61;77.66
35758;BME280;21879;50.110;18.900;2023-08-30T02:19:08;97561.50;;;17.67;77.34
35758;BME280;21879;50.110;18.900;2023-08-30T02:29:36;97562.91;;;17.67;77.09
35758;BME280;21879;50.110;18.900;2023-08-30T02:40:06;97563.87;;;17.69;77.40
35758;BME280;21879;50.110;18.900;2023-08-30T02:50:34;97553.48;;;17.63;77.40
35758;BME280;21879;50.110;18.900;2023-08-30T03:01:03;97548.02;;;17.50;77.17
35758;BME280;21879;50.110;18.900;2023-08-30T03:11:30;97538.01;;;17.35;77.35
35758;BME280;21879;50.110;18.900;2023-08-30T03:21:59;97527.91;;;17.30;77.58
35758;BME280;21879;50.110;18.900;2023-08-30T03:32:27;97531.61;;;17.23;77.62
35758;BME280;21879;50.110;18.900;2023-08-30T03:42:55;97541.54;;;17.22;77.54
35758;BME280;21879;50.110;18.900;2023-08-30T03:53:24;97554.45;;;17.20;77.58
35758;BME280;21879;50.110;18.900;2023-08-30T04:03:52;97569.89;;;17.21;77.84
35758;BME280;21879;50.110;18.900;2023-08-30T04:14:19;97567.23;;;17.30;77.51
35758;BME280;21879;50.110;18.900;2023-08-30T04:24:50;97564.49;;;17.35;76.89
35758;BME280;21879;50.110;18.900;2023-08-30T04:35:26;97567.31;;;17.29;76.84
35758;BME280;21879;50.110;18.900;2023-08-30T04:45:54;97567.84;;;17.26;77.07
35758;BME280;21879;50.110;18.900;2023-08-30T04:56:23;97571.23;;;17.25;77.31
35758;BME280;21879;50.110;18.900;2023-08-30T05:06:51;97562.46;;;17.24;77.27
35758;BME280;21879;50.110;18.900;2023-08-30T05:17:19;97567.20;;;17.24;77.10
35758;BME280;21879;50.110;18.900;2023-08-30T05:27:47;97561.51;;;17.20;76.90
35758;BME280;21879;50.110;18.900;2023-08-30T05:38:15;97568.61;;;17.18;77.06
35758;BME280;21879;50.110;18.900;2023-08-30T05:48:43;97571.08;;;17.27;77.11
35758;BME280;21879;50.110;18.900;2023-08-30T05:59:11;97584.92;;;17.25;76.74
35758;BME280;21879;50.110;18.900;2023-08-30T06:09:40;97595.27;;;17.25;76.93
35758;BME280;21879;50.110;18.900;2023-08-30T06:20:10;97596.14;;;17.29;77.04
35758;BME280;21879;50.110;18.900;2023-08-30T06:30:37;97600.69;;;17.32;76.84
35758;BME280;21879;50.110;18.900;2023-08-30T06:41:05;97601.27;;;17.41;76.54
35758;BME280;21879;50.110;18.900;2023-08-30T06:51:33;97602.55;;;17.43;76.31
35758;BME280;21879;50.110;18.900;2023-08-30T07:02:01;97616.60;;;17.50;76.39
35758;BME280;21879;50.110;18.900;2023-08-30T07:12:29;97620.98;;;17.56;75.99
35758;BME280;21879;50.110;18.900;2023-08-30T07:22:57;97635.32;;;17.54;75.92
35758;BME280;21879;50.110;18.900;2023-08-30T07:33:24;97642.27;;;17.56;75.68
35758;BME280;21879;50.110;18.900;2023-08-30T07:43:52;97643.23;;;17.54;75.82
35758;BME280;21879;50.110;18.900;2023-08-30T07:54:20;97646.08;;;17.60;75.87
35758;BME280;21879;50.110;18.900;2023-08-30T08:04:48;97644.77;;;17.58;75.98
35758;BME280;21879;50.110;18.900;2023-08-30T08:15:16;97644.50;;;17.53;76.11
35758;BME280;21879;50.110;18.900;2023-08-30T08:25:44;97652.52;;;17.48;76.09
35758;BME280;21879;50.110;18.900;2023-08-30T08:36:12;97659.98;;;17.47;75.93
35758;BME280;21879;50.110;18.900;2023-08-30T08:46:41;97678.55;;;17.51;76.16
35758;BME280;21879;50.110;18.900;2023-08-30T08:57:10;97686.31;;;17.47;75.95
35758;BME280;21879;50.110;18.900;2023-08-30T09:07:39;97682.28;;;17.50;76.51
35758;BME280;21879;50.110;18.900;2023-08-30T09:18:16;97681.83;;;17.59;76.57
35758;BME280;21879;50.110;18.900;2023-08-30T09:28:43;97679.80;;;17.64;76.53
35758;BME280;21879;50.110;18.900;2023-08-30T09:39:12;97679.95;;;17.71;76.45
35758;BME280;21879;50.110;18.900;2023-08-30T09:49:44;97686.33;;;17.73;76.06
35758;BME280;21879;50.110;18.900;2023-08-30T10:00:14;97692.61;;;17.74;76.12
35758;BME280;21879;50.110;18.900;2023-08-30T10:10:42;97687.72;;;17.77;76.14
35758;BME280;21879;50.110;18.900;2023-08-30T10:21:14;97685.00;;;17.75;75.68
35758;BME280;21879;50.110;18.900;2023-08-30T10:31:42;97684.64;;;17.72;75.23
35758;BME280;21879;50.110;18.900;2023-08-30T10:42:12;97692.46;;;17.67;75.35
35758;BME280;21879;50.110;18.900;2023-08-30T10:52:40;97694.61;;;17.60;75.47
35758;BME280;21879;50.110;18.900;2023-08-30T11:03:11;97694.63;;;17.49;75.33
35758;BME280;21879;50.110;18.900;2023-08-30T11:13:42;97688.52;;;17.59;75.42
35758;BME280;21879;50.110;18.900;2023-08-30T11:24:10;97678.55;;;17.84;75.48
35758;BME280;21879;50.110;18.900;2023-08-30T11:34:39;97673.19;;;17.98;75.16
35758;BME280;21879;50.110;18.900;2023-08-30T11:45:09;97667.47;;;18.06;74.52
35758;BME280;21879;50.110;18.900;2023-08-30T11:55:38;97674.67;;;18.10;74.05
35758;BME280;21879;50.110;18.900;2023-08-30T12:06:10;97677.91;;;18.12;73.76
35758;BME280;21879;50.110;18.900;2023-08-30T12:16:39;97674.98;;;18.10;73.78
35758;BME280;21879;50.110;18.900;2023-08-30T12:27:08;97682.11;;;18.09;73.80
35758;BME280;21879;50.110;18.900;2023-08-30T12:37:35;97687.86;;;18.00;73.56
35758;BME280;21879;50.110;18.900;2023-08-30T12:48:04;97693.01;;;17.93;73.96
35758;BME280;21879;50.110;18.900;2023-08-30T12:58:32;97698.00;;;17.92;74.07
35758;BME280;21879;50.110;18.900;2023-08-30T13:09:00;97703.12;;;17.95;74.37
35758;BME280;21879;50.110;18.900;2023-08-30T13:19:29;97709.80;;;17.88;74.11
35758;BME280;21879;50.110;18.900;2023-08-30T13:29:58;97707.23;;;17.84;74.40
35758;BME280;21879;50.110;18.900;2023-08-30T13:40:26;97702.15;;;17.87;74.70
35758;BME280;21879;50.110;18.900;2023-08-30T13:50:54;97708.48;;;17.87;74.70
35758;BME280;21879;50.110;18.900;2023-08-30T14:01:22;97710.27;;;17.83;75.00
35758;BME280;21879;50.110;18.900;2023-08-30T14:11:51;97715.00;;;17.87;75.53
35758;BME280;21879;50.110;18.900;2023-08-30T14:22:19;97712.67;;;17.94;75.76
35758;BME280;21879;50.110;18.900;2023-08-30T14:32:48;97706.80;;;17.98;75.59
35758;BME280;21879;50.110;18.900;2023-08-30T14:43:15;97704.98;;;17.93;75.12
35758;BME280;21879;50.110;18.900;2023-08-30T14:53:43;97716.61;;;17.83;75.15
35758;BME280;21879;50.110;18.900;2023-08-30T15:04:12;97729.17;;;17.71;75.40
35758;BME280;21879;50.110;18.900;2023-08-30T15:14:40;97724.11;;;17.73;75.84
35758;BME280;21879;50.110;18.900;2023-08-30T15:25:09;97742.77;;;17.73;75.67
35758;BME280;21879;50.110;18.900;2023-08-30T15:35:39;97748.44;;;17.69;75.21
35758;BME280;21879;50.110;18.900;2023-08-30T15:46:07;97746.99;;;17.60;74.82
35758;BME280;21879;50.110;18.900;2023-08-30T15:56:35;97755.34;;;17.48;74.50
35758;BME280;21879;50.110;18.900;2023-08-30T16:07:04;97764.85;;;17.37;74.69
35758;BME280;21879;50.110;18.900;2023-08-30T16:17:34;97757.41;;;17.39;74.85
35758;BME280;21879;50.110;18.900;2023-08-30T16:28:03;97760.17;;;17.46;74.90
35758;BME280;21879;50.110;18.900;2023-08-30T16:38:31;97767.08;;;17.49;74.94
35758;BME280;21879;50.110;18.900;2023-08-30T16:49:00;97780.89;;;17.53;74.92
35758;BME280;21879;50.110;18.900;2023-08-30T16:59:29;97792.83;;;17.61;75.00
35758;BME280;21879;50.110;18.900;2023-08-30T17:09:57;97784.86;;;17.72;75.15
35758;BME280;21879;50.110;18.900;2023-08-30T17:20:25;97793.18;;;17.78;74.86
35758;BME280;21879;50.110;18.900;2023-08-30T17:30:53;97789.42;;;17.75;74.62
35758;BME280;21879;50.110;18.900;2023-08-30T17:41:23;97794.05;;;17.64;74.20
35758;BME280;21879;50.110;18.900;2023-08-30T17:51:51;97792.23;;;17.59;74.36
35758;BME280;21879;50.110;18.900;2023-08-30T18:02:20;97794.08;;;17.53;74.14
35758;BME280;21879;50.110;18.900;2023-08-30T18:12:48;97801.66;;;17.53;74.27
35758;BME280;21879;50.110;18.900;2023-08-30T18:23:17;97811.02;;;17.52;74.36
35758;BME280;21879;50.110;18.900;2023-08-30T18:33:45;97815.94;;;17.49;74.12
35758;BME280;21879;50.110;18.900;2023-08-30T18:44:13;97825.31;;;17.48;74.23
35758;BME280;21879;50.110;18.900;2023-08-30T18:54:41;97824.77;;;17.41;74.17
35758;BME280;21879;50.110;18.900;2023-08-30T19:05:11;97823.73;;;17.37;74.20
35758;BME280;21879;50.110;18.900;2023-08-30T19:15:41;97828.52;;;17.29;73.93
35758;BME280;21879;50.110;18.900;2023-08-30T19:26:09;97835.62;;;17.35;74.03
35758;BME280;21879;50.110;18.900;2023-08-30T19:36:39;97837.64;;;17.30;73.77
35758;BME280;21879;50.110;18.900;2023-08-30T19:47:06;97828.73;;;17.28;73.94
35758;BME280;21879;50.110;18.900;2023-08-30T19:57:35;97829.10;;;17.32;74.05
35758;BME280;21879;50.110;18.900;2023-08-30T20:08:05;97839.52;;;17.30;73.93
35758;BME280;21879;50.110;18.900;2023-08-30T20:18:33;97848.98;;;17.28;73.86
35758;BME280;21879;50.110;18.900;2023-08-30T20:29:01;97854.09;;;17.17;74.03
35758;BME280;21879;50.110;18.900;2023-08-30T20:39:31;97859.46;;;17.19;74.13
35758;BME280;21879;50.110;18.900;2023-08-30T20:49:59;97864.15;;;17.27;73.98
35758;BME280;21879;50.110;18.900;2023-08-30T21:00:27;97848.20;;;17.23;73.57
35758;BME280;21879;50.110;18.900;2023-08-30T21:10:55;97846.50;;;17.14;73.70
35758;BME280;21879;50.110;18.900;2023-08-30T21:21:23;97862.98;;;17.11;73.59
35758;BME280;21879;50.110;18.900;2023-08-30T21:31:51;97872.30;;;17.19;73.33
35758;BME280;21879;50.110;18.900;2023-08-30T21:42:18;97870.31;;;17.20;73.08
35758;BME280;21879;50.110;18.900;2023-08-30T21:52:46;97879.48;;;17.15;72.71
35758;BME280;21879;50.110;18.900;2023-08-30T22:03:14;97885.13;;;17.07;72.61
35758;BME280;21879;50.110;18.900;2023-08-30T22:13:44;97886.23;;;17.06;72.67
35758;BME280;21879;50.110;18.900;2023-08-30T22:24:12;97895.17;;;17.10;72.65
35758;BME280;21879;50.110;18.900;2023-08-30T22:34:40;97893.49;;;17.12;72.52
35758;BME280;21879;50.110;18.900;2023-08-30T22:45:09;97901.39;;;17.05;72.34
35758;BME280;21879;50.110;18.900;2023-08-30T22:55:37;97898.80;;;17.04;72.68
35758;BME280;21879;50.110;18.900;2023-08-30T23:06:05;97903.90;;;17.07;72.58
35758;BME280;21879;50.110;18.900;2023-08-30T23:16:33;97913.33;;;17.01;72.48
35758;BME280;21879;50.110;18.900;2023-08-30T23:27:00;97912.55;;;17.07;72.64
35758;BME280;21879;50.110;18.900;2023-08-30T23:37:28;97906.42;;;17.10;72.58
35758;BME280;21879;50.110;18.900;2023-08-30T23:47:56;97908.26;;;17.12;72.46
35758;BME280;21879;50.110;18.900;2023-08-30T23:58:25;97909.87;;;17.04;72.32
